Time;durP1;ratioP1;P1;durP2;ratioP2;P2;SDS_P1;SDS_P2;PMS_P1;PMS_P2;Temp;Humidity;BMP_temperature;BMP_pressure;BME280_temperature;BME280_humidity;BME280_pressure;Samples;Min_cycle;Max_cycle;Signal;HPM_P1;HPM_P2
2021/01/08 00:02:12;;;;;;;26.30;16.97;;;;;;;;;;4999813;28;20456;-96
2021/01/08 00:04:40;;;;;;;22.50;16.83;;;;;;;;;;5008321;28;20445;-96
2021/01/08 00:10:09;;;;;;;22.30;14.20;;;;;;;;;;5015567;28;20465;-96
2021/01/08 00:12:42;;;;;;;20.43;14.80;;;;;;;;;;4997352;28;20444;-96
2021/01/08 00:15:10;;;;;;;19.83;14.40;;;;;;;;;;5004426;28;20451;-96
2021/01/08 00:17:36;;;;;;;20.23;14.73;;;;;;;;;;5009268;28;20844;-96
2021/01/08 00:20:04;;;;;;;19.07;13.30;;;;;;;;;;5008715;28;20484;-96
2021/01/08 00:22:30;;;;;;;24.90;14.00;;;;;;;;;;5010641;28;20529;-96
2021/01/08 00:24:57;;;;;;;22.67;16.07;;;;;;;;;;5010942;28;20485;-96
2021/01/08 00:27:28;;;;;;;22.07;16.80;;;;;;;;;;5013844;28;20460;-96
2021/01/08 00:29:55;;;;;;;25.30;16.47;;;;;;;;;;5011411;28;20457;-96
2021/01/08 00:32:21;;;;;;;26.63;17.40;;;;;;;;;;5005674;28;20855;-96
2021/01/08 00:34:48;;;;;;;19.63;14.47;;;;;;;;;;5008881;28;20456;-96
2021/01/08 00:37:35;;;;;;;22.97;15.13;;;;;;;;;;5011436;28;20520;-96
2021/01/08 00:40:06;;;;;;;23.67;16.00;;;;;;;;;;5013701;28;20468;-96
2021/01/08 00:42:34;;;;;;;24.47;17.50;;;;;;;;;;5013945;28;20429;-96
2021/01/08 00:45:15;;;;;;;21.50;15.80;;;;;;;;;;5015938;28;20476;-96
2021/01/08 00:48:00;;;;;;;23.47;15.67;;;;;;;;;;5016470;28;20417;-96
2021/01/08 01:04:25;;;;;;;38.30;19.83;;;;;;;;;;5800342;23;20487;-96
2021/01/08 01:18:05;;;;;;;41.43;21.87;;;;;;;;;;5047544;28;20471;-96
2021/01/08 01:20:32;;;;;;;53.77;23.80;;;;;;;;;;5057669;28;20478;-96
2021/01/08 01:22:58;;;;;;;44.63;22.60;;;;;;;;;;5057275;28;20526;-96
2021/01/08 01:25:25;;;;;;;35.50;20.27;;;;;;;;;;5057284;28;20442;-96
2021/01/08 01:27:51;;;;;;;24.37;15.67;;;;;;;;;;5057342;28;20441;-96
2021/01/08 01:30:18;;;;;;;34.03;19.37;;;;;;;;;;5058653;28;20439;-95
2021/01/08 01:32:44;;;;;;;26.63;17.03;;;;;;;;;;5058463;28;20443;-96
2021/01/08 01:35:10;;;;;;;31.53;17.37;;;;;;;;;;5057563;28;20477;-96
2021/01/08 01:37:37;;;;;;;24.17;17.47;;;;;;;;;;5057356;28;20518;-96
2021/01/08 01:42:39;;;;;;;28.80;17.83;;;;;;;;;;5096801;23;20475;-96
2021/01/08 01:45:06;;;;;;;31.80;19.30;;;;;;;;;;5008541;28;20433;-96
2021/01/08 01:47:33;;;;;;;35.43;21.83;;;;;;;;;;4998341;28;20429;-96
2021/01/08 01:49:59;;;;;;;36.20;21.70;;;;;;;;;;5014382;28;20437;-96
2021/01/08 01:52:26;;;;;;;34.43;21.17;;;;;;;;;;4997706;28;20438;-96
2021/01/08 01:54:53;;;;;;;35.20;20.80;;;;;;;;;;4998549;28;20469;-96
2021/01/08 01:57:19;;;;;;;31.47;19.27;;;;;;;;;;5013514;28;20436;-96
2021/01/08 01:59:45;;;;;;;37.90;20.33;;;;;;;;;;5018491;28;20441;-96
2021/01/08 02:15:09;;;;;;;24.57;15.50;;;;;;;;;;5351038;23;20290;-96
2021/01/08 02:20:10;;;;;;;21.30;15.03;;;;;;;;;;5132601;23;20500;-96
2021/01/08 02:25:11;;;;;;;29.97;17.50;;;;;;;;;;5041465;23;20493;-96
2021/01/08 02:27:38;;;;;;;27.40;17.10;;;;;;;;;;5009548;28;20448;-96
2021/01/08 02:30:05;;;;;;;25.10;17.77;;;;;;;;;;5014046;28;20449;-96
2021/01/08 02:32:32;;;;;;;26.97;18.03;;;;;;;;;;5016468;28;20440;-96
2021/01/08 02:34:58;;;;;;;30.50;19.53;;;;;;;;;;4979923;28;20444;-96
2021/01/08 02:37:25;;;;;;;26.77;16.60;;;;;;;;;;5012352;28;20471;-96
2021/01/08 02:39:52;;;;;;;22.40;15.47;;;;;;;;;;5033863;28;20458;-97
2021/01/08 02:42:19;;;;;;;20.53;14.90;;;;;;;;;;5003866;28;20438;-96
2021/01/08 02:44:45;;;;;;;20.83;14.80;;;;;;;;;;5001771;28;20453;-97
2021/01/08 02:47:12;;;;;;;24.93;15.80;;;;;;;;;;5077719;23;20527;-96
2021/01/08 02:49:38;;;;;;;22.43;14.53;;;;;;;;;;5011497;28;20457;-96
2021/01/08 02:52:06;;;;;;;22.10;16.93;;;;;;;;;;5008655;28;20448;-96
2021/01/08 02:54:33;;;;;;;19.63;14.70;;;;;;;;;;5018242;28;20464;-96
2021/01/08 02:57:00;;;;;;;19.83;14.77;;;;;;;;;;5011426;28;20429;-97
2021/01/08 02:59:28;;;;;;;16.90;13.30;;;;;;;;;;5020220;28;20429;-96
2021/01/08 03:01:54;;;;;;;26.17;14.00;;;;;;;;;;5020616;28;20498;-96
2021/01/08 03:04:21;;;;;;;19.47;12.83;;;;;;;;;;5021514;28;20436;-96
2021/01/08 03:06:47;;;;;;;16.00;13.00;;;;;;;;;;5021180;28;20479;-96
2021/01/08 03:09:16;;;;;;;21.33;13.00;;;;;;;;;;5020215;28;20449;-96
2021/01/08 03:11:49;;;;;;;22.17;14.67;;;;;;;;;;5020942;28;20456;-96
2021/01/08 03:14:16;;;;;;;21.43;14.50;;;;;;;;;;5020030;28;20447;-97
2021/01/08 03:19:14;;;;;;;17.93;12.87;;;;;;;;;;4967062;28;20474;-96
2021/01/08 03:21:41;;;;;;;24.00;13.50;;;;;;;;;;4972922;29;20488;-96
2021/01/08 03:24:07;;;;;;;20.60;14.57;;;;;;;;;;4970680;29;20447;-96
2021/01/08 03:26:34;;;;;;;22.23;16.07;;;;;;;;;;4977448;29;20464;-96
2021/01/08 03:29:00;;;;;;;23.20;15.23;;;;;;;;;;4972076;29;20490;-96
2021/01/08 03:31:26;;;;;;;21.50;15.63;;;;;;;;;;4970002;29;20843;-96
2021/01/08 03:33:52;;;;;;;25.37;17.50;;;;;;;;;;4974720;28;20447;-94
2021/01/08 03:36:19;;;;;;;25.47;16.70;;;;;;;;;;4980868;29;20506;-96
2021/01/08 03:38:46;;;;;;;27.63;16.40;;;;;;;;;;5016433;23;20446;-96
2021/01/08 03:41:12;;;;;;;24.10;16.97;;;;;;;;;;5010722;28;20497;-96
2021/01/08 03:43:38;;;;;;;25.30;16.93;;;;;;;;;;4996111;28;20432;-96
2021/01/08 03:46:06;;;;;;;18.93;13.23;;;;;;;;;;5040697;23;20507;-92
2021/01/08 03:48:33;;;;;;;17.40;8.70;;;;;;;;;;5054908;28;20435;-96
2021/01/08 03:50:59;;;;;;;25.53;18.60;;;;;;;;;;5044783;28;20459;-94
2021/01/08 03:53:28;;;;;;;18.93;13.57;;;;;;;;;;5049361;28;20465;-96
2021/01/08 04:02:00;;;;;;;19.57;14.23;;;;;;;;;;5138970;22;20511;-96
2021/01/08 04:04:26;;;;;;;17.47;11.97;;;;;;;;;;5014678;28;20463;-97
2021/01/08 04:06:52;;;;;;;17.37;10.00;;;;;;;;;;5016889;28;20433;-96
2021/01/08 04:09:19;;;;;;;36.60;25.37;;;;;;;;;;5008854;28;20452;-96
2021/01/08 04:11:45;;;;;;;21.87;15.80;;;;;;;;;;5016297;28;20436;-96
2021/01/08 04:14:11;;;;;;;17.23;12.37;;;;;;;;;;5020243;28;20448;-96
2021/01/08 04:16:39;;;;;;;14.77;11.20;;;;;;;;;;5020642;28;20439;-96
2021/01/08 04:22:17;;;;;;;19.63;11.27;;;;;;;;;;5141510;23;20474;-95
2021/01/08 04:24:44;;;;;;;13.60;10.37;;;;;;;;;;5005420;28;20460;-96
2021/01/08 04:30:06;;;;;;;18.70;11.97;;;;;;;;;;5169365;23;20582;-96
2021/01/08 04:32:32;;;;;;;18.37;11.37;;;;;;;;;;5018778;28;20447;-96
2021/01/08 04:34:59;;;;;;;10.33;6.57;;;;;;;;;;5015825;28;20433;-96
2021/01/08 04:37:25;;;;;;;20.77;9.17;;;;;;;;;;5027029;28;20460;-96
2021/01/08 04:42:43;;;;;;;9.40;6.30;;;;;;;;;;5019642;23;20492;-96
2021/01/08 04:45:14;;;;;;;9.27;5.10;;;;;;;;;;5017629;28;20432;-96
2021/01/08 04:47:49;;;;;;;7.63;4.50;;;;;;;;;;5224957;23;20455;-96
2021/01/08 04:50:15;;;;;;;10.97;4.40;;;;;;;;;;5073894;23;20544;-96
2021/01/08 04:55:15;;;;;;;12.63;4.93;;;;;;;;;;5008024;28;20477;-96
2021/01/08 04:57:43;;;;;;;4.83;4.10;;;;;;;;;;5014963;28;20451;-96
2021/01/08 05:00:16;;;;;;;7.67;4.03;;;;;;;;;;5064238;23;20491;-96
2021/01/08 05:02:42;;;;;;;9.47;3.90;;;;;;;;;;5066221;28;20439;-96
2021/01/08 05:05:09;;;;;;;11.33;4.00;;;;;;;;;;5072023;28;20441;-95
2021/01/08 05:07:46;;;;;;;10.33;4.00;;;;;;;;;;5072924;28;20454;-96
2021/01/08 05:10:13;;;;;;;4.57;3.60;;;;;;;;;;5071632;28;20458;-96
2021/01/08 05:12:48;;;;;;;7.67;3.80;;;;;;;;;;5129240;23;20501;-96
2021/01/08 05:15:33;;;;;;;5.90;3.80;;;;;;;;;;5072174;28;20454;-95
2021/01/08 05:18:04;;;;;;;10.23;3.43;;;;;;;;;;5237870;23;20500;-96
2021/01/08 05:20:43;;;;;;;10.13;3.83;;;;;;;;;;5051741;28;20484;-96
2021/01/08 05:25:51;;;;;;;5.10;3.83;;;;;;;;;;5036038;26;20487;-96
2021/01/08 05:30:53;;;;;;;7.47;3.50;;;;;;;;;;4941598;23;2868263;-95
2021/01/08 05:33:20;;;;;;;8.90;3.20;;;;;;;;;;4992627;28;20202;-94
2021/01/08 05:35:46;;;;;;;4.73;3.30;;;;;;;;;;4980847;28;20454;-95
2021/01/08 05:38:12;;;;;;;11.63;3.70;;;;;;;;;;4973769;28;20511;-96
2021/01/08 05:43:20;;;;;;;8.23;3.50;;;;;;;;;;5011149;23;20497;-96
2021/01/08 05:45:46;;;;;;;6.20;3.30;;;;;;;;;;5016516;28;20442;-96
2021/01/08 05:48:13;;;;;;;9.27;3.77;;;;;;;;;;5085937;23;20476;-96
2021/01/08 05:50:44;;;;;;;6.40;3.90;;;;;;;;;;5015762;28;20504;-96
2021/01/08 05:53:10;;;;;;;5.10;3.33;;;;;;;;;;5015270;28;20526;-96
2021/01/08 05:55:37;;;;;;;9.70;3.80;;;;;;;;;;5012592;23;20501;-96
2021/01/08 06:00:53;;;;;;;8.10;4.27;;;;;;;;;;5228749;22;20470;-96
2021/01/08 06:03:24;;;;;;;6.03;3.30;;;;;;;;;;5028973;23;20536;-96
2021/01/08 06:05:52;;;;;;;7.27;3.67;;;;;;;;;;5034385;28;20448;-96
2021/01/08 06:14:10;;;;;;;4.90;3.17;;;;;;;;;;1636191;22;20486;-96
2021/01/08 06:16:38;;;;;;;4.80;2.87;;;;;;;;;;5037658;23;20496;-96
2021/01/08 06:19:16;;;;;;;5.73;2.93;;;;;;;;;;5015362;28;20428;-96
2021/01/08 06:21:46;;;;;;;7.67;3.37;;;;;;;;;;5014606;28;20866;-95
2021/01/08 06:24:21;;;;;;;7.73;3.40;;;;;;;;;;5016740;28;20447;-96
2021/01/08 06:26:56;;;;;;;8.67;3.77;;;;;;;;;;5160896;23;20498;-95
2021/01/08 06:29:24;;;;;;;8.43;3.70;;;;;;;;;;5055214;28;20446;-96
2021/01/08 06:31:51;;;;;;;3.47;3.17;;;;;;;;;;5045653;28;20456;-96
2021/01/08 06:34:26;;;;;;;7.37;3.10;;;;;;;;;;5038188;28;20457;-95
2021/01/08 06:37:06;;;;;;;10.63;3.70;;;;;;;;;;5042801;23;20471;-95
2021/01/08 06:42:08;;;;;;;6.33;3.50;;;;;;;;;;5048781;28;20499;-96
2021/01/08 06:44:34;;;;;;;5.70;3.07;;;;;;;;;;5037007;23;20487;-96
2021/01/08 06:47:17;;;;;;;12.70;4.70;;;;;;;;;;4997595;28;20834;-96
2021/01/08 06:49:55;;;;;;;9.60;4.10;;;;;;;;;;4993447;28;20466;-96
2021/01/08 06:52:29;;;;;;;7.17;3.00;;;;;;;;;;5047684;23;20533;-96
2021/01/08 06:55:04;;;;;;;4.83;3.00;;;;;;;;;;5051034;28;20447;-96
2021/01/08 07:00:20;;;;;;;7.70;3.30;;;;;;;;;;5209471;23;20507;-96
2021/01/08 07:03:04;;;;;;;5.13;3.60;;;;;;;;;;5054588;28;20524;-96
2021/01/08 07:05:31;;;;;;;7.10;3.63;;;;;;;;;;5056683;28;20446;-96
2021/01/08 07:08:03;;;;;;;11.33;3.77;;;;;;;;;;5053773;28;20481;-96
2021/01/08 07:10:51;;;;;;;6.87;3.50;;;;;;;;;;5037138;28;20538;-96
2021/01/08 07:16:30;;;;;;;9.73;3.53;;;;;;;;;;4574032;23;20482;-96
2021/01/08 07:19:17;;;;;;;4.80;3.47;;;;;;;;;;5016189;28;20463;-96
2021/01/08 07:22:08;;;;;;;5.80;3.07;;;;;;;;;;5014054;28;20461;-96
2021/01/08 07:27:51;;;;;;;8.70;4.30;;;;;;;;;;5011449;28;20510;-96
2021/01/08 07:30:19;;;;;;;10.83;3.03;;;;;;;;;;4993488;28;20460;-94
2021/01/08 07:32:59;;;;;;;6.80;3.57;;;;;;;;;;5006682;28;20460;-96
2021/01/08 07:35:26;;;;;;;7.03;3.67;;;;;;;;;;5012109;28;20462;-96
2021/01/08 07:37:56;;;;;;;5.23;4.10;;;;;;;;;;5011841;28;20448;-96
2021/01/08 07:43:39;;;;;;;6.37;3.20;;;;;;;;;;5012768;28;20445;-96
2021/01/08 07:46:27;;;;;;;6.90;3.10;;;;;;;;;;5009659;28;20808;-96
2021/01/08 07:48:55;;;;;;;8.47;3.30;;;;;;;;;;4978296;23;20483;-95
2021/01/08 07:51:23;;;;;;;8.33;2.90;;;;;;;;;;4947811;29;20455;-96
2021/01/08 07:53:52;;;;;;;8.87;3.40;;;;;;;;;;4949410;29;20465;-95
2021/01/08 07:56:21;;;;;;;7.67;3.20;;;;;;;;;;4945988;29;20549;-95
2021/01/08 07:58:48;;;;;;;9.57;4.20;;;;;;;;;;4961192;28;20468;-96
2021/01/08 08:01:15;;;;;;;5.20;3.00;;;;;;;;;;4946753;29;20494;-91
2021/01/08 08:03:41;;;;;;;9.77;4.03;;;;;;;;;;4947917;29;20473;-94
2021/01/08 08:06:07;;;;;;;5.83;3.30;;;;;;;;;;4962353;29;20452;-93
2021/01/08 08:08:39;;;;;;;10.63;3.87;;;;;;;;;;4981947;28;20478;-95
2021/01/08 08:11:12;;;;;;;13.73;4.10;;;;;;;;;;4959387;28;20462;-95
2021/01/08 08:13:39;;;;;;;13.10;3.67;;;;;;;;;;4949105;29;20485;-95
2021/01/08 08:16:06;;;;;;;4.93;3.10;;;;;;;;;;4951957;29;20466;-96
2021/01/08 08:18:37;;;;;;;6.67;3.20;;;;;;;;;;4986175;28;20497;-96
2021/01/08 08:21:14;;;;;;;7.87;3.47;;;;;;;;;;4983801;28;20484;-93
2021/01/08 08:23:57;;;;;;;8.67;3.60;;;;;;;;;;4954275;29;20466;-96
2021/01/08 08:26:26;;;;;;;13.10;3.67;;;;;;;;;;4991180;23;20508;-96
2021/01/08 08:29:04;;;;;;;11.13;4.20;;;;;;;;;;4990511;28;20479;-95
2021/01/08 08:31:36;;;;;;;10.47;3.40;;;;;;;;;;4990680;28;20828;-95
2021/01/08 08:34:03;;;;;;;4.87;3.57;;;;;;;;;;4991968;28;20515;-96
2021/01/08 08:36:38;;;;;;;5.83;4.00;;;;;;;;;;4991990;28;20476;-94
2021/01/08 08:39:26;;;;;;;6.20;3.00;;;;;;;;;;4989867;28;20446;-96
2021/01/08 08:41:55;;;;;;;6.03;3.73;;;;;;;;;;5038474;23;20501;-95
2021/01/08 08:44:43;;;;;;;10.00;3.97;;;;;;;;;;5069005;28;20452;-96
2021/01/08 08:47:12;;;;;;;8.83;3.83;;;;;;;;;;5069295;28;20468;-96
2021/01/08 08:49:44;;;;;;;8.30;4.37;;;;;;;;;;5140884;23;20497;-95
2021/01/08 08:52:29;;;;;;;8.90;3.57;;;;;;;;;;5070972;28;20434;-95
2021/01/08 08:54:57;;;;;;;7.23;3.57;;;;;;;;;;5050847;23;20644;-96
2021/01/08 08:57:25;;;;;;;6.43;3.33;;;;;;;;;;4993769;28;20449;-96
2021/01/08 09:00:06;;;;;;;7.63;3.70;;;;;;;;;;4991394;28;20449;-96
2021/01/08 09:02:41;;;;;;;6.13;4.07;;;;;;;;;;4993723;28;20492;-96
2021/01/08 09:05:08;;;;;;;6.50;3.40;;;;;;;;;;4991853;28;20438;-96
2021/01/08 09:07:45;;;;;;;13.13;3.63;;;;;;;;;;4992152;28;20457;-95
2021/01/08 09:10:22;;;;;;;8.10;3.90;;;;;;;;;;4993873;28;20469;-96
2021/01/08 09:13:14;;;;;;;7.57;3.77;;;;;;;;;;4994854;28;20450;-95
2021/01/08 09:15:51;;;;;;;10.70;3.93;;;;;;;;;;4990276;28;20601;-96
2021/01/08 09:18:29;;;;;;;9.33;3.40;;;;;;;;;;4970370;28;20449;-94
2021/01/08 09:20:59;;;;;;;10.40;4.80;;;;;;;;;;4971740;28;20550;-95
2021/01/08 09:23:27;;;;;;;8.80;3.80;;;;;;;;;;4990031;28;20460;-96
2021/01/08 09:25:58;;;;;;;8.43;3.60;;;;;;;;;;5038832;23;21267;-96
2021/01/08 09:28:32;;;;;;;9.93;3.83;;;;;;;;;;5092947;23;20522;-95
2021/01/08 09:31:00;;;;;;;12.27;3.53;;;;;;;;;;5071858;28;20454;-95
2021/01/08 09:33:30;;;;;;;13.30;4.30;;;;;;;;;;5126067;23;20488;-96
2021/01/08 09:36:01;;;;;;;9.57;3.80;;;;;;;;;;5060461;23;20455;-96
2021/01/08 09:38:30;;;;;;;7.87;4.13;;;;;;;;;;4965899;28;20474;-96
2021/01/08 09:40:59;;;;;;;6.60;3.70;;;;;;;;;;4953773;29;20483;-96
2021/01/08 09:43:31;;;;;;;8.70;3.50;;;;;;;;;;4953498;29;20445;-96
2021/01/08 09:48:47;;;;;;;7.03;3.97;;;;;;;;;;4970600;29;20468;-96
2021/01/08 09:51:14;;;;;;;10.37;3.60;;;;;;;;;;4990398;23;20479;-96
2021/01/08 09:53:48;;;;;;;12.80;3.97;;;;;;;;;;4977943;28;20476;-96
2021/01/08 09:56:23;;;;;;;5.13;3.57;;;;;;;;;;4984225;28;20482;-95
2021/01/08 10:01:42;;;;;;;12.53;3.93;;;;;;;;;;4971108;28;20493;-96
2021/01/08 10:04:24;;;;;;;10.60;4.10;;;;;;;;;;4979075;28;20464;-96
2021/01/08 10:07:04;;;;;;;8.63;3.87;;;;;;;;;;4968570;28;20975;-96
2021/01/08 10:09:44;;;;;;;6.53;3.60;;;;;;;;;;4954270;29;20447;-96
2021/01/08 10:12:11;;;;;;;7.30;3.93;;;;;;;;;;4964306;28;20459;-96
2021/01/08 10:14:46;;;;;;;7.43;3.53;;;;;;;;;;4971744;28;20469;-96
2021/01/08 10:17:15;;;;;;;7.97;4.40;;;;;;;;;;4969327;28;20457;-94
2021/01/08 10:19:44;;;;;;;5.50;4.00;;;;;;;;;;4972962;28;20473;-96
2021/01/08 10:22:18;;;;;;;13.53;4.40;;;;;;;;;;5051043;23;20499;-96
2021/01/08 10:25:13;;;;;;;6.57;3.70;;;;;;;;;;5057015;23;20435;-96
2021/01/08 10:28:16;;;;;;;8.33;4.33;;;;;;;;;;4935868;28;20473;-96
2021/01/08 10:30:43;;;;;;;7.07;4.53;;;;;;;;;;4986559;23;20491;-95
2021/01/08 10:33:10;;;;;;;9.60;3.90;;;;;;;;;;5017366;28;20501;-96
2021/01/08 10:38:17;;;;;;;6.95;4.28;;;;;;;;;;5018591;23;20487;-95
2021/01/08 10:46:21;;;;;;;10.60;4.33;;;;;;;;;;5031192;28;20458;-96
2021/01/08 10:48:50;;;;;;;6.17;3.70;;;;;;;;;;5033689;28;20439;-96
2021/01/08 10:51:16;;;;;;;5.50;3.87;;;;;;;;;;5026730;23;20496;-96
2021/01/08 10:53:42;;;;;;;6.97;4.13;;;;;;;;;;5016115;28;20485;-96
2021/01/08 10:58:48;;;;;;;7.17;3.90;;;;;;;;;;5049625;22;20510;-96
2021/01/08 11:07:06;;;;;;;8.50;4.07;;;;;;;;;;5015091;28;20487;-96
2021/01/08 11:09:34;;;;;;;7.57;3.90;;;;;;;;;;5102447;23;20504;-96
2021/01/08 11:12:12;;;;;;;8.73;4.07;;;;;;;;;;5012753;28;20487;-95
2021/01/08 11:14:39;;;;;;;7.20;3.60;;;;;;;;;;5020019;23;20496;-96
2021/01/08 11:19:56;;;;;;;7.13;3.70;;;;;;;;;;5077468;23;20492;-96
2021/01/08 11:22:25;;;;;;;12.17;5.77;;;;;;;;;;5082530;23;20502;-96
2021/01/08 11:24:56;;;;;;;10.87;4.70;;;;;;;;;;5025260;28;20478;-96
2021/01/08 11:27:47;;;;;;;11.10;3.87;;;;;;;;;;5095666;23;20493;-96
2021/01/08 11:30:15;;;;;;;10.03;3.80;;;;;;;;;;5075653;28;20459;-96
2021/01/08 11:32:57;;;;;;;7.40;3.97;;;;;;;;;;5070258;22;20500;-96
2021/01/08 11:38:02;;;;;;;9.13;3.77;;;;;;;;;;5416272;23;20482;-96
2021/01/08 11:40:37;;;;;;;9.20;4.30;;;;;;;;;;5010897;28;20539;-96
2021/01/08 11:46:10;;;;;;;11.13;5.47;;;;;;;;;;5034884;28;20437;-96
2021/01/08 11:48:53;;;;;;;9.27;3.63;;;;;;;;;;5037577;28;20454;-96
2021/01/08 11:51:20;;;;;;;9.70;4.10;;;;;;;;;;5028569;28;20466;-96
2021/01/08 11:59:30;;;;;;;5.73;4.30;;;;;;;;;;5036303;28;20448;-96
2021/01/08 12:04:33;;;;;;;9.23;3.60;;;;;;;;;;5093524;22;20484;-96
2021/01/08 12:07:21;;;;;;;12.27;4.00;;;;;;;;;;5017031;28;20458;-96
2021/01/08 12:18:25;;;;;;;5.23;3.53;;;;;;;;;;4995880;28;20454;-96
2021/01/08 12:20:51;;;;;;;5.80;3.90;;;;;;;;;;5012382;28;20459;-96
2021/01/08 12:23:25;;;;;;;12.10;3.90;;;;;;;;;;5013321;28;20489;-96
2021/01/08 12:25:59;;;;;;;11.83;4.00;;;;;;;;;;5013046;28;20500;-96
2021/01/08 12:28:34;;;;;;;7.13;3.60;;;;;;;;;;5012716;28;20461;-96
2021/01/08 12:31:21;;;;;;;10.33;5.10;;;;;;;;;;5011245;28;20448;-96
2021/01/08 12:38:54;;;;;;;12.88;4.70;;;;;;;;;;5019645;23;20468;-96
2021/01/08 12:41:35;;;;;;;9.57;4.90;;;;;;;;;;5014959;23;20304;-96
2021/01/08 12:44:07;;;;;;;16.60;5.50;;;;;;;;;;4995377;28;20434;-96
2021/01/08 12:46:38;;;;;;;10.20;5.77;;;;;;;;;;4997644;28;20571;-96
2021/01/08 12:52:19;;;;;;;15.13;7.20;;;;;;;;;;5286470;23;20558;-97
2021/01/08 12:57:34;;;;;;;8.13;4.03;;;;;;;;;;5367414;23;20495;-96
2021/01/08 13:00:21;;;;;;;6.60;4.20;;;;;;;;;;4995701;28;20530;-96
2021/01/08 13:02:48;;;;;;;8.90;4.17;;;;;;;;;;4994845;28;20498;-96
2021/01/08 13:08:00;;;;;;;15.80;9.87;;;;;;;;;;5300552;23;20855;-96
2021/01/08 13:10:34;;;;;;;10.53;6.33;;;;;;;;;;5092766;23;20560;-96
2021/01/08 13:16:16;;;;;;;9.30;5.23;;;;;;;;;;5093271;23;20480;-96
2021/01/08 13:21:26;;;;;;;9.07;4.40;;;;;;;;;;5456620;22;20473;-97
2021/01/08 13:29:16;;;;;;;14.77;4.37;;;;;;;;;;3605489;23;20490;-96
2021/01/08 13:31:44;;;;;;;9.93;3.97;;;;;;;;;;5176145;23;20478;-96
2021/01/08 13:37:03;;;;;;;5.43;4.13;;;;;;;;;;5316751;23;20478;-96
2021/01/08 13:39:30;;;;;;;7.97;3.87;;;;;;;;;;5289020;23;20513;-96
2021/01/08 13:42:03;;;;;;;9.03;3.90;;;;;;;;;;5064078;28;20502;-96
2021/01/08 13:44:29;;;;;;;9.47;4.50;;;;;;;;;;5065126;28;20437;-96
2021/01/08 13:46:55;;;;;;;10.40;4.10;;;;;;;;;;5064846;28;20457;-94
2021/01/08 13:49:21;;;;;;;10.90;4.37;;;;;;;;;;5047579;28;20461;-96
2021/01/08 13:51:55;;;;;;;11.13;4.33;;;;;;;;;;5050080;28;20427;-96
2021/01/08 13:54:31;;;;;;;9.27;3.57;;;;;;;;;;5054105;28;20491;-96
2021/01/08 13:56:58;;;;;;;7.40;4.60;;;;;;;;;;5052556;28;20484;-95
2021/01/08 13:59:30;;;;;;;8.00;4.13;;;;;;;;;;5027677;23;20527;-96
2021/01/08 14:02:05;;;;;;;11.33;4.33;;;;;;;;;;5009277;23;20503;-96
2021/01/08 14:05:06;;;;;;;6.87;4.30;;;;;;;;;;4990654;28;20447;-96
2021/01/08 14:10:24;;;;;;;9.20;4.80;;;;;;;;;;5098162;23;20536;-95
2021/01/08 14:12:50;;;;;;;9.80;4.07;;;;;;;;;;5006503;28;20502;-95
2021/01/08 14:15:17;;;;;;;10.97;4.53;;;;;;;;;;4997611;28;20503;-94
2021/01/08 14:17:55;;;;;;;6.60;4.33;;;;;;;;;;5013337;28;20454;-96
2021/01/08 14:20:21;;;;;;;8.87;4.40;;;;;;;;;;5019469;28;21023;-96
2021/01/08 14:22:47;;;;;;;10.33;4.10;;;;;;;;;;4993102;28;20489;-96
2021/01/08 14:25:14;;;;;;;7.43;5.30;;;;;;;;;;4990149;28;20453;-96
2021/01/08 14:27:41;;;;;;;14.20;5.50;;;;;;;;;;4996825;28;20505;-95
2021/01/08 14:30:07;;;;;;;7.63;4.10;;;;;;;;;;5011450;28;20456;-95
2021/01/08 14:32:35;;;;;;;8.00;4.23;;;;;;;;;;5002469;28;20466;-96
2021/01/08 14:35:01;;;;;;;7.93;4.10;;;;;;;;;;5006417;28;20457;-96
2021/01/08 14:37:27;;;;;;;10.60;4.80;;;;;;;;;;4999726;28;21019;-94
2021/01/08 14:39:56;;;;;;;8.10;4.40;;;;;;;;;;4991109;28;20457;-96
2021/01/08 14:42:24;;;;;;;8.50;4.33;;;;;;;;;;4990653;28;21095;-96
2021/01/08 14:44:53;;;;;;;9.00;4.53;;;;;;;;;;5018416;23;20488;-95
2021/01/08 14:47:20;;;;;;;8.03;4.00;;;;;;;;;;5066826;28;20516;-96
2021/01/08 14:49:47;;;;;;;5.80;3.73;;;;;;;;;;5068059;28;20437;-95
2021/01/08 14:52:13;;;;;;;8.20;4.20;;;;;;;;;;5063739;28;20462;-95
2021/01/08 14:54:39;;;;;;;8.73;4.27;;;;;;;;;;5064238;28;20502;-95
2021/01/08 14:57:08;;;;;;;8.40;4.10;;;;;;;;;;5059408;28;20492;-96
2021/01/08 14:59:35;;;;;;;5.97;4.20;;;;;;;;;;5052436;28;20450;-95
2021/01/08 15:02:01;;;;;;;6.23;4.33;;;;;;;;;;5068282;28;20481;-94
2021/01/08 15:04:28;;;;;;;6.40;4.00;;;;;;;;;;5067661;28;20445;-96
2021/01/08 15:06:54;;;;;;;10.53;4.40;;;;;;;;;;5067489;28;20552;-95
2021/01/08 15:09:20;;;;;;;9.70;4.23;;;;;;;;;;5065989;28;20450;-94
2021/01/08 15:11:48;;;;;;;11.90;4.53;;;;;;;;;;5065278;28;20452;-96
2021/01/08 15:14:16;;;;;;;15.33;5.07;;;;;;;;;;5065859;28;20615;-96
2021/01/08 15:16:46;;;;;;;8.43;4.93;;;;;;;;;;5060262;28;20467;-95
2021/01/08 15:19:12;;;;;;;7.43;4.20;;;;;;;;;;5069039;28;20489;-95
2021/01/08 15:21:43;;;;;;;11.50;4.60;;;;;;;;;;5062605;28;20489;-96
2021/01/08 15:24:09;;;;;;;13.57;4.33;;;;;;;;;;5065804;28;20520;-94
2021/01/08 15:26:35;;;;;;;7.63;4.47;;;;;;;;;;5053933;28;20475;-96
2021/01/08 15:29:02;;;;;;;9.63;4.20;;;;;;;;;;5068716;28;20435;-95
2021/01/08 15:31:28;;;;;;;9.70;5.40;;;;;;;;;;5065474;28;20484;-96
2021/01/08 15:33:56;;;;;;;10.03;4.80;;;;;;;;;;5065605;28;20446;-96
2021/01/08 15:36:22;;;;;;;9.87;4.93;;;;;;;;;;5065659;28;20472;-96
2021/01/08 15:38:50;;;;;;;8.30;4.13;;;;;;;;;;5057840;28;20441;-94
2021/01/08 15:41:20;;;;;;;12.47;4.87;;;;;;;;;;5068050;28;20481;-94
2021/01/08 15:43:48;;;;;;;11.33;4.60;;;;;;;;;;5065576;28;20488;-95
2021/01/08 15:46:15;;;;;;;6.27;4.20;;;;;;;;;;5032108;28;20495;-95
2021/01/08 15:48:41;;;;;;;8.53;4.90;;;;;;;;;;5050603;28;20464;-96
2021/01/08 15:51:10;;;;;;;6.97;5.13;;;;;;;;;;5066981;28;20922;-96
2021/01/08 15:53:46;;;;;;;7.83;5.10;;;;;;;;;;5069421;28;20441;-96
2021/01/08 15:56:27;;;;;;;14.00;4.90;;;;;;;;;;5048535;28;20462;-96
2021/01/08 15:58:53;;;;;;;12.80;5.20;;;;;;;;;;5045496;28;20457;-96
2021/01/08 16:01:19;;;;;;;10.03;5.07;;;;;;;;;;5069798;28;20434;-96
2021/01/08 16:03:52;;;;;;;8.03;5.30;;;;;;;;;;5069502;28;20438;-96
2021/01/08 16:06:20;;;;;;;11.67;5.00;;;;;;;;;;5067534;28;20533;-96
2021/01/08 16:08:54;;;;;;;12.73;5.20;;;;;;;;;;5071261;28;20445;-96
2021/01/08 16:11:21;;;;;;;13.20;4.97;;;;;;;;;;5065870;28;20483;-95
2021/01/08 16:13:53;;;;;;;11.00;4.60;;;;;;;;;;5065041;28;20445;-96
2021/01/08 16:16:20;;;;;;;9.97;5.27;;;;;;;;;;5056292;28;20511;-95
2021/01/08 16:19:00;;;;;;;7.67;5.07;;;;;;;;;;5067047;28;20449;-96
2021/01/08 16:21:30;;;;;;;10.40;5.90;;;;;;;;;;5064695;28;20481;-96
2021/01/08 16:23:56;;;;;;;6.97;4.70;;;;;;;;;;5067075;28;20460;-96
2021/01/08 16:26:23;;;;;;;6.70;4.60;;;;;;;;;;5064897;28;20485;-96
2021/01/08 16:28:49;;;;;;;10.67;4.80;;;;;;;;;;5065546;28;20455;-96
2021/01/08 16:31:15;;;;;;;8.23;4.63;;;;;;;;;;5061595;28;20450;-92
2021/01/08 16:33:41;;;;;;;8.33;5.63;;;;;;;;;;5062006;28;20446;-95
2021/01/08 16:36:17;;;;;;;8.63;4.63;;;;;;;;;;5065807;28;20457;-93
2021/01/08 16:38:48;;;;;;;9.97;4.73;;;;;;;;;;5068621;28;20446;-96
2021/01/08 16:41:14;;;;;;;12.63;5.00;;;;;;;;;;5065621;28;20527;-94
2021/01/08 16:43:40;;;;;;;10.70;4.80;;;;;;;;;;5061067;28;20501;-96
2021/01/08 16:46:09;;;;;;;9.23;4.80;;;;;;;;;;5065000;28;20481;-94
2021/01/08 16:48:35;;;;;;;14.30;6.13;;;;;;;;;;5063645;28;20419;-96
2021/01/08 16:51:01;;;;;;;14.13;5.50;;;;;;;;;;5040920;28;20469;-94
2021/01/08 16:53:27;;;;;;;12.23;4.70;;;;;;;;;;5055443;28;20458;-96
2021/01/08 16:55:54;;;;;;;10.30;4.97;;;;;;;;;;5062613;28;20469;-92
2021/01/08 16:58:20;;;;;;;7.07;5.27;;;;;;;;;;5063094;28;20472;-96
2021/01/08 17:03:27;;;;;;;10.30;5.80;;;;;;;;;;5050504;28;20446;-96
2021/01/08 17:05:55;;;;;;;7.50;5.57;;;;;;;;;;5052127;28;20471;-96
2021/01/08 17:08:23;;;;;;;14.30;6.70;;;;;;;;;;5066982;28;20810;-94
2021/01/08 17:11:02;;;;;;;10.37;5.10;;;;;;;;;;5063055;28;21019;-96
2021/01/08 17:13:28;;;;;;;10.87;6.00;;;;;;;;;;5054706;28;20433;-96
2021/01/08 17:15:54;;;;;;;12.03;6.10;;;;;;;;;;5040613;28;20545;-94
2021/01/08 17:18:20;;;;;;;9.83;5.80;;;;;;;;;;5062147;28;20450;-93
2021/01/08 17:20:49;;;;;;;15.87;5.30;;;;;;;;;;5062795;28;20509;-96
2021/01/08 17:23:15;;;;;;;14.40;5.33;;;;;;;;;;5060516;28;20500;-94
2021/01/08 17:25:58;;;;;;;8.60;5.47;;;;;;;;;;5068077;28;20473;-96
2021/01/08 17:28:26;;;;;;;9.23;5.40;;;;;;;;;;5064289;28;20868;-94
2021/01/08 17:30:52;;;;;;;11.37;5.03;;;;;;;;;;5066836;28;20446;-95
2021/01/08 17:33:19;;;;;;;9.70;5.10;;;;;;;;;;5062869;28;20461;-96
2021/01/08 17:35:46;;;;;;;15.30;7.00;;;;;;;;;;5065920;28;20457;-92
2021/01/08 17:38:16;;;;;;;8.07;5.40;;;;;;;;;;5064810;28;20453;-95
2021/01/08 17:40:42;;;;;;;9.97;4.43;;;;;;;;;;5067140;28;20462;-96
2021/01/08 17:43:08;;;;;;;11.60;5.67;;;;;;;;;;5067813;28;20496;-93
2021/01/08 17:45:38;;;;;;;10.50;5.33;;;;;;;;;;5069329;28;20457;-96
2021/01/08 17:48:05;;;;;;;10.50;5.10;;;;;;;;;;5068781;28;20457;-96
2021/01/08 17:50:31;;;;;;;9.90;5.00;;;;;;;;;;5065744;28;20454;-92
2021/01/08 17:52:57;;;;;;;10.13;5.13;;;;;;;;;;5045803;28;20935;-94